Time;durP1;ratioP1;P1;durP2;ratioP2;P2;SDS_P1;SDS_P2;PMS_P1;PMS_P2;Temp;Humidity;BMP_temperature;BMP_pressure;BME280_temperature;BME280_humidity;BME280_pressure;Samples;Min_cycle;Max_cycle;Signal;HPM_P1;HPM_P2
2022/06/06 00:00:08;;;;;;;79.30;42.70;;;;;;;14.27;100.00;101317.81;4945742;28;20482;-82
2022/06/06 00:02:34;;;;;;;76.47;41.08;;;;;;;14.25;100.00;101320.59;4947994;28;20050;-83
2022/06/06 00:04:59;;;;;;;81.88;42.75;;;;;;;14.22;100.00;101320.84;4959781;28;20051;-82
2022/06/06 00:07:25;;;;;;;85.13;42.35;;;;;;;14.19;100.00;101315.81;4968362;28;20117;-82
2022/06/06 00:09:51;;;;;;;83.22;41.65;;;;;;;14.16;100.00;101318.72;4983470;28;20092;-82
2022/06/06 00:12:16;;;;;;;80.45;41.95;;;;;;;14.17;100.00;101320.38;4953367;28;20438;-82
2022/06/06 00:14:43;;;;;;;77.20;39.70;;;;;;;14.16;100.00;101321.34;4947159;28;20019;-82
2022/06/06 00:17:09;;;;;;;74.78;40.58;;;;;;;14.15;100.00;101324.97;4950253;28;20062;-82
2022/06/06 00:19:34;;;;;;;78.68;39.53;;;;;;;14.14;100.00;101317.16;4967620;28;20543;-82
2022/06/06 00:22:00;;;;;;;73.90;39.25;;;;;;;14.16;100.00;101325.81;4968994;28;20026;-82
2022/06/06 00:24:25;;;;;;;78.90;39.70;;;;;;;14.16;100.00;101316.06;4968658;28;20038;-82
2022/06/06 00:26:51;;;;;;;76.78;38.78;;;;;;;14.15;100.00;101314.38;4982746;28;20511;-82
2022/06/06 00:29:18;;;;;;;77.63;38.30;;;;;;;14.18;100.00;101305.34;4968865;28;20030;-82
2022/06/06 00:37:14;;;;;;;79.15;38.10;;;;;;;14.18;100.00;101298.25;4969232;28;20042;-82
2022/06/06 00:39:41;;;;;;;70.50;37.30;;;;;;;14.19;100.00;101296.44;4967988;28;20077;-82
2022/06/06 00:42:18;;;;;;;77.45;37.35;;;;;;;14.20;100.00;101296.31;4966949;28;20461;-82
2022/06/06 00:44:44;;;;;;;69.53;37.90;;;;;;;14.18;100.00;101292.13;4968712;28;20547;-82
2022/06/06 00:47:24;;;;;;;70.82;37.35;;;;;;;14.19;100.00;101289.34;4970027;28;20027;-82
2022/06/06 00:49:56;;;;;;;70.05;38.00;;;;;;;14.19;100.00;101294.63;4969160;28;20396;-82
2022/06/06 00:52:35;;;;;;;69.25;36.70;;;;;;;14.20;100.00;101291.03;4968576;28;20022;-82
2022/06/06 00:55:06;;;;;;;72.45;37.97;;;;;;;14.20;100.00;101295.47;4969290;28;20038;-82
2022/06/06 00:57:36;;;;;;;73.45;38.03;;;;;;;14.20;100.00;101285.72;4969211;28;20031;-82
2022/06/06 01:00:08;;;;;;;71.50;38.30;;;;;;;14.22;100.00;101282.97;4968594;28;20041;-81
2022/06/06 01:02:35;;;;;;;79.00;39.70;;;;;;;14.22;100.00;101282.97;4968623;28;20505;-81
2022/06/06 01:05:01;;;;;;;76.90;40.08;;;;;;;14.20;100.00;101291.03;4955070;28;20031;-81
2022/06/06 01:07:26;;;;;;;76.07;40.53;;;;;;;14.20;100.00;101293.66;4948870;28;20106;-81
2022/06/06 01:09:54;;;;;;;78.32;41.08;;;;;;;14.22;100.00;101294.38;4949613;28;20142;-81
2022/06/06 01:12:22;;;;;;;87.03;44.15;;;;;;;14.22;100.00;101294.38;4948494;28;20107;-81
2022/06/06 01:15:01;;;;;;;85.05;44.33;;;;;;;14.21;100.00;101282.13;4948611;28;20079;-81
2022/06/06 01:17:49;;;;;;;85.55;44.83;;;;;;;14.22;100.00;101282.97;4953327;28;20062;-81
2022/06/06 01:20:51;;;;;;;88.45;45.85;;;;;;;14.20;100.00;101296.31;4972045;28;20026;-81
2022/06/06 01:23:25;;;;;;;88.82;46.78;;;;;;;14.17;100.00;101293.09;4986287;28;20027;-81
2022/06/06 01:26:09;;;;;;;90.00;48.42;;;;;;;14.15;100.00;101287.91;4985858;28;20030;-81
2022/06/06 01:28:54;;;;;;;92.93;47.90;;;;;;;14.14;100.00;101286.25;4985895;28;20049;-81
2022/06/06 01:31:50;;;;;;;89.50;48.80;;;;;;;14.15;100.00;101290.56;4971253;28;20050;-81
2022/06/06 01:34:32;;;;;;;92.95;49.63;;;;;;;14.16;100.00;101299.34;4969255;28;20049;-81
2022/06/06 01:36:58;;;;;;;86.90;49.05;;;;;;;14.16;100.00;101292.25;4985840;28;20031;-81
2022/06/06 01:39:26;;;;;;;88.05;48.45;;;;;;;14.17;100.00;101287.78;4970380;28;20113;-81
2022/06/06 01:41:58;;;;;;;94.00;49.10;;;;;;;14.18;100.00;101292.97;4970903;28;20035;-81
2022/06/06 01:44:52;;;;;;;89.78;47.90;;;;;;;14.17;100.00;101285.97;4985637;28;20029;-81
2022/06/06 01:47:29;;;;;;;88.45;46.20;;;;;;;14.17;100.00;101291.28;4970277;28;20034;-81
2022/06/06 01:49:56;;;;;;;84.28;46.60;;;;;;;14.18;100.00;101298.25;4971623;28;20026;-81
2022/06/06 01:52:22;;;;;;;84.75;44.95;;;;;;;14.18;100.00;101287.66;4985878;28;20445;-81
2022/06/06 01:54:52;;;;;;;78.40;43.03;;;;;;;14.20;100.00;101295.47;4969595;28;20061;-81
2022/06/06 01:57:17;;;;;;;81.88;42.78;;;;;;;14.20;100.00;101282.25;4987419;28;20361;-81
2022/06/06 01:59:42;;;;;;;75.15;40.35;;;;;;;14.22;100.00;101282.97;4971536;28;20038;-81
2022/06/06 02:02:09;;;;;;;71.68;39.53;;;;;;;14.19;100.00;101278.75;4953395;28;20046;-81
2022/06/06 02:04:34;;;;;;;74.50;41.00;;;;;;;14.22;100.00;101275.00;4960005;28;20026;-81
2022/06/06 02:07:00;;;;;;;74.20;38.40;;;;;;;14.20;100.00;101272.50;4986362;28;20400;-81
2022/06/06 02:09:28;;;;;;;64.28;36.85;;;;;;;14.20;100.00;101259.25;4972702;28;20082;-81
2022/06/06 02:11:53;;;;;;;65.75;36.75;;;;;;;14.21;100.00;101255.66;4961369;28;20038;-81
2022/06/06 02:14:21;;;;;;;69.03;35.70;;;;;;;14.23;100.00;101261.66;4951918;29;20027;-81
2022/06/06 02:16:46;;;;;;;63.35;35.28;;;;;;;14.23;100.00;101266.94;4952679;28;20587;-81
2022/06/06 02:19:12;;;;;;;65.80;35.53;;;;;;;14.22;100.00;101259.13;4984572;28;20167;-81
2022/06/06 02:21:37;;;;;;;61.35;34.28;;;;;;;14.18;100.00;101260.34;4970852;28;20401;-81
2022/06/06 02:24:03;;;;;;;64.38;34.20;;;;;;;14.18;100.00;101266.50;4971535;28;20023;-81
2022/06/06 02:26:29;;;;;;;61.65;34.80;;;;;;;14.19;100.00;101269.97;4970116;28;20039;-81
2022/06/06 02:28:55;;;;;;;65.72;35.30;;;;;;;14.21;100.00;101270.69;4970069;28;20038;-81
2022/06/06 02:31:20;;;;;;;64.22;35.33;;;;;;;14.19;100.00;101273.47;4971282;28;20034;-81
2022/06/06 02:33:45;;;;;;;75.30;37.35;;;;;;;14.19;100.00;101277.91;4968631;28;20073;-81
2022/06/06 02:36:11;;;;;;;73.03;38.25;;;;;;;14.17;100.00;101270.09;4985889;28;20031;-81
2022/06/06 02:38:37;;;;;;;71.47;37.80;;;;;;;14.18;100.00;101274.44;4969138;28;20034;-81
2022/06/06 02:41:08;;;;;;;72.63;37.65;;;;;;;14.16;100.00;101271.06;4970611;28;20110;-81
2022/06/06 02:43:43;;;;;;;67.30;37.28;;;;;;;14.17;100.00;101270.09;4968892;28;20023;-81
2022/06/06 02:46:11;;;;;;;68.30;37.47;;;;;;;14.16;100.00;101268.44;4970950;28;20046;-81
2022/06/06 02:48:37;;;;;;;67.35;36.22;;;;;;;14.14;100.00;101267.72;4969782;28;20511;-80
2022/06/06 02:51:03;;;;;;;69.78;37.20;;;;;;;14.13;100.00;101275.78;4971019;28;20038;-80
2022/06/06 02:53:29;;;;;;;65.05;36.25;;;;;;;14.12;100.00;101261.72;4968993;28;20031;-80
2022/06/06 02:55:56;;;;;;;64.47;34.72;;;;;;;14.10;100.00;101263.66;4970216;28;20030;-81
2022/06/06 02:58:23;;;;;;;64.78;35.17;;;;;;;14.10;100.00;101264.47;4970724;28;20033;-80
2022/06/06 03:00:54;;;;;;;67.40;36.95;;;;;;;14.09;100.00;101272.53;4970015;28;20532;-80
2022/06/06 03:03:19;;;;;;;67.50;36.58;;;;;;;14.07;100.00;101275.31;4971057;28;20027;-81
2022/06/06 03:06:05;;;;;;;70.05;37.40;;;;;;;14.09;100.00;101264.59;4953429;28;20453;-80
2022/06/06 03:08:54;;;;;;;66.28;36.03;;;;;;;14.07;100.00;101270.03;4936435;29;20043;-81
2022/06/06 03:11:19;;;;;;;65.78;37.05;;;;;;;14.05;100.00;101274.59;4950857;29;20473;-80
2022/06/06 03:14:15;;;;;;;68.68;37.28;;;;;;;14.06;100.00;101267.50;4966445;28;20086;-81
2022/06/06 03:20:46;;;;;;;65.63;36.47;;;;;;;14.02;100.00;101272.22;4856249;29;20489;-80
2022/06/06 03:23:37;;;;;;;65.00;36.10;;;;;;;14.00;100.00;101278.56;4932613;29;20423;-80
2022/06/06 03:26:48;;;;;;;62.75;35.63;;;;;;;13.99;100.00;101284.81;4933090;29;20087;-80
2022/06/06 03:29:30;;;;;;;61.88;34.70;;;;;;;13.94;100.00;101274.63;4947139;29;20034;-80
2022/06/06 03:32:13;;;;;;;58.72;33.67;;;;;;;13.95;100.00;101280.75;4932660;29;20118;-80
2022/06/06 03:34:41;;;;;;;60.47;33.47;;;;;;;13.92;100.00;101283.66;4929869;29;20106;-80
2022/06/06 03:37:13;;;;;;;59.80;34.55;;;;;;;13.89;100.00;101278.59;4929341;29;20042;-80
2022/06/06 03:39:57;;;;;;;57.75;32.60;;;;;;;13.86;100.00;101281.50;4929963;29;20031;-80
2022/06/06 03:43:14;;;;;;;50.17;31.90;;;;;;;13.83;100.00;101279.09;4947891;28;20081;-80
2022/06/06 03:45:46;;;;;;;50.55;30.73;;;;;;;13.75;100.00;101285.84;4890068;29;20036;-81
2022/06/06 03:48:36;;;;;;;51.97;30.60;;;;;;;13.73;100.00;101298.38;4890864;29;20096;-80
2022/06/06 03:51:27;;;;;;;53.03;29.88;;;;;;;13.68;100.00;101300.53;4929574;28;20036;-80
2022/06/06 03:54:05;;;;;;;51.75;30.25;;;;;;;13.65;100.00;101295.50;4949383;28;20517;-81
2022/06/06 03:56:44;;;;;;;49.20;28.67;;;;;;;13.60;100.00;101299.44;4946128;28;20594;-80
2022/06/06 03:59:10;;;;;;;53.65;28.58;;;;;;;13.54;100.00;101292.84;4946913;28;20034;-80
2022/06/06 04:01:38;;;;;;;46.05;27.67;;;;;;;13.49;100.00;101289.72;4949071;28;20047;-80
2022/06/06 04:04:05;;;;;;;45.60;27.13;;;;;;;13.53;100.00;101296.44;4968917;28;20092;-80
2022/06/06 04:06:32;;;;;;;46.03;26.95;;;;;;;13.68;100.00;101305.81;4967691;28;20035;-80
2022/06/06 04:08:58;;;;;;;42.22;26.35;;;;;;;13.80;100.00;101290.78;4968906;28;20058;-80
2022/06/06 04:11:39;;;;;;;42.95;25.70;;;;;;;13.92;100.00;101302.16;4964232;28;20027;-81
2022/06/06 04:14:23;;;;;;;39.10;24.88;;;;;;;14.08;98.82;101303.47;4949161;29;20114;-81
2022/06/06 04:17:13;;;;;;;36.83;23.48;;;;;;;14.22;97.45;101307.63;4949921;28;20820;-80
2022/06/06 04:20:08;;;;;;;33.22;21.75;;;;;;;14.22;95.86;101310.25;4948545;29;20031;-80
2022/06/06 04:22:58;;;;;;;33.88;21.92;;;;;;;14.00;96.77;101320.91;4949649;28;20035;-80
2022/06/06 04:25:35;;;;;;;34.03;21.10;;;;;;;13.85;97.15;101314.22;4966363;28;20030;-81
2022/06/06 04:28:19;;;;;;;34.65;21.83;;;;;;;13.75;97.86;101320.25;4951548;29;20540;-80
2022/06/06 04:31:02;;;;;;;37.47;21.60;;;;;;;13.70;98.49;101325.06;4950774;29;20020;-80
2022/06/06 04:33:38;;;;;;;32.72;20.83;;;;;;;13.61;97.48;101324.91;4950738;28;20046;-81
2022/06/06 04:36:29;;;;;;;33.90;21.13;;;;;;;13.52;96.55;101320.38;4966499;28;20397;-81
2022/06/06 04:39:07;;;;;;;33.60;19.90;;;;;;;13.45;97.04;101330.59;4950145;29;20031;-80
2022/06/06 04:41:54;;;;;;;31.45;20.67;;;;;;;13.39;97.18;101326.63;4950048;28;20023;-80
2022/06/06 04:44:30;;;;;;;30.17;19.80;;;;;;;13.35;96.21;101321.69;4951390;28;20097;-81
2022/06/06 04:47:02;;;;;;;30.17;20.98;;;;;;;13.32;96.90;101335.16;4948846;28;20050;-81
2022/06/06 04:49:31;;;;;;;29.43;20.60;;;;;;;13.32;97.22;101324.56;4953861;28;20038;-80
2022/06/06 04:51:59;;;;;;;29.60;20.85;;;;;;;13.32;96.70;101319.28;4954038;28;20275;-80
2022/06/06 04:54:26;;;;;;;28.08;21.80;;;;;;;13.29;96.48;101323.03;4953369;28;20078;-81
2022/06/06 04:56:53;;;;;;;31.67;21.90;;;;;;;13.29;96.48;101324.81;4951822;28;20030;-81
2022/06/06 04:59:21;;;;;;;31.67;22.98;;;;;;;13.28;94.96;101320.50;4953571;28;20104;-80
2022/06/06 05:01:47;;;;;;;32.17;23.08;;;;;;;13.26;95.51;101322.41;4952487;28;20166;-81
2022/06/06 05:04:12;;;;;;;31.17;23.55;;;;;;;13.27;95.70;101319.66;4973833;28;20098;-81
2022/06/06 05:06:59;;;;;;;30.45;24.40;;;;;;;13.25;94.99;101323.38;4972142;28;20473;-80
2022/06/06 05:09:44;;;;;;;31.73;22.80;;;;;;;13.24;94.97;101326.97;4971893;28;20117;-80
2022/06/06 05:12:30;;;;;;;30.67;23.88;;;;;;;13.21;94.95;101322.78;4961987;28;20366;-81
2022/06/06 05:15:17;;;;;;;31.88;24.88;;;;;;;13.25;95.32;101331.31;4951408;29;20035;-80
2022/06/06 05:17:56;;;;;;;31.85;26.10;;;;;;;13.16;93.83;101324.88;4957687;28;20022;-80
2022/06/06 05:20:41;;;;;;;30.50;25.33;;;;;;;13.14;94.09;101322.34;4971365;28;20055;-80
2022/06/06 05:23:36;;;;;;;30.40;25.42;;;;;;;13.13;95.15;101319.81;4963612;28;20501;-80
2022/06/06 05:26:22;;;;;;;30.67;24.98;;;;;;;13.13;94.65;101333.88;4957167;28;20050;-80
2022/06/06 05:29:08;;;;;;;28.05;24.45;;;;;;;13.15;94.75;101334.59;4971207;28;20134;-80
2022/06/06 05:32:11;;;;;;;30.83;23.30;;;;;;;13.22;95.05;101334.19;4972088;28;20396;-81
2022/06/06 05:34:41;;;;;;;25.60;22.35;;;;;;;13.28;95.08;101333.72;4986597;28;20097;-80
2022/06/06 05:37:32;;;;;;;26.58;23.00;;;;;;;13.34;93.39;101334.06;4972669;28;20031;-80
2022/06/06 05:40:12;;;;;;;26.05;22.08;;;;;;;13.39;91.91;101333.72;4973245;28;20374;-80
2022/06/06 05:42:54;;;;;;;25.58;21.02;;;;;;;13.39;91.34;101341.63;4971446;28;20031;-81
2022/06/06 05:45:40;;;;;;;24.40;20.73;;;;;;;13.38;91.57;101345.25;4972125;28;20026;-80
2022/06/06 05:48:25;;;;;;;23.55;21.00;;;;;;;13.37;91.83;101344.41;4973314;28;20374;-81
2022/06/06 05:51:06;;;;;;;22.27;19.67;;;;;;;13.39;91.98;101331.06;4972061;28;20045;-81
2022/06/06 05:53:31;;;;;;;23.10;20.60;;;;;;;13.41;91.97;101342.34;4972676;28;20030;-81
2022/06/06 05:56:22;;;;;;;23.65;20.58;;;;;;;13.47;92.10;101337.44;4988089;28;20082;-80
2022/06/06 05:59:19;;;;;;;23.88;19.23;;;;;;;13.53;91.04;101337.91;4985582;28;20030;-81
2022/06/06 06:01:53;;;;;;;25.85;20.70;;;;;;;13.51;89.59;101345.97;4971795;28;20039;-80
2022/06/06 06:04:37;;;;;;;23.38;19.27;;;;;;;13.58;90.60;101336.56;4979998;28;20026;-80
2022/06/06 06:07:29;;;;;;;23.98;19.58;;;;;;;13.60;90.42;101339.94;4952676;29;20093;-81
2022/06/06 06:10:11;;;;;;;22.92;19.10;;;;;;;13.58;90.30;101335.75;4952072;28;20047;-81
2022/06/06 06:12:57;;;;;;;21.63;18.23;;;;;;;13.62;90.73;101337.22;4949810;28;20034;-82
2022/06/06 06:15:33;;;;;;;21.00;16.33;;;;;;;13.63;90.10;101345.03;4951123;29;20062;-82
2022/06/06 06:18:01;;;;;;;15.68;13.80;;;;;;;13.62;89.27;101345.97;4958935;28;20029;-82
2022/06/06 06:20:33;;;;;;;18.58;13.75;;;;;;;13.64;90.02;101346.69;4971684;28;20023;-83
2022/06/06 06:23:23;;;;;;;13.93;11.38;;;;;;;13.66;89.57;101344.78;4971729;28;20030;-83
2022/06/06 06:25:49;;;;;;;15.50;10.75;;;;;;;13.66;89.72;101344.78;4985174;28;20061;-83
2022/06/06 06:28:15;;;;;;;13.13;9.25;;;;;;;13.67;88.06;101351.75;4971582;28;20477;-81
2022/06/06 06:30:59;;;;;;;14.18;8.82;;;;;;;13.70;89.36;101366.53;4970740;28;20076;-81
2022/06/06 06:33:41;;;;;;;8.73;7.25;;;;;;;13.70;87.62;101367.38;4970869;28;20357;-81
2022/06/06 06:36:28;;;;;;;9.32;6.63;;;;;;;13.78;88.51;101370.25;4986437;28;20030;-80
2022/06/06 06:39:13;;;;;;;9.40;6.75;;;;;;;13.88;89.14;101367.69;4969563;28;20349;-80
2022/06/06 06:42:15;;;;;;;8.15;6.07;;;;;;;13.98;89.13;101365.16;4971474;28;20481;-80
2022/06/06 06:45:00;;;;;;;8.38;5.45;;;;;;;14.03;85.38;101368.31;4970180;28;20057;-81
2022/06/06 06:47:34;;;;;;;9.15;5.10;;;;;;;14.03;84.43;101379.72;4971713;28;20023;-81
2022/06/06 06:50:22;;;;;;;6.32;4.50;;;;;;;14.00;84.95;101381.75;4972418;28;20544;-81
2022/06/06 06:53:14;;;;;;;7.07;3.92;;;;;;;14.04;83.86;101385.88;4971522;28;20309;-81
2022/06/06 06:55:47;;;;;;;7.03;3.55;;;;;;;14.14;84.03;101385.97;4940283;28;20039;-82
2022/06/06 06:58:37;;;;;;;6.40;3.58;;;;;;;14.28;84.21;101378.56;4972148;28;20116;-81
2022/06/06 07:01:07;;;;;;;5.50;3.30;;;;;;;14.43;81.79;101376.53;4970094;28;20041;-82
2022/06/06 07:09:43;;;;;;;4.93;2.50;;;;;;;15.01;78.91;101377.00;4932527;29;20062;-82
2022/06/06 07:12:52;;;;;;;3.83;2.25;;;;;;;15.22;77.35;101371.72;4941151;29;20027;-82
2022/06/06 07:15:40;;;;;;;3.40;2.30;;;;;;;15.33;77.12;101382.22;4950766;29;20027;-82
2022/06/06 07:18:08;;;;;;;4.97;1.85;;;;;;;15.45;72.38;101381.16;4957992;28;20483;-83
2022/06/06 07:20:35;;;;;;;4.47;2.40;;;;;;;15.59;72.78;101380.00;4970188;28;20027;-82
2022/06/06 07:23:07;;;;;;;3.08;2.03;;;;;;;15.45;72.96;101381.16;4970141;28;20078;-82
2022/06/06 07:25:38;;;;;;;3.85;2.35;;;;;;;15.42;72.27;101380.59;4968796;28;20112;-82
2022/06/06 07:28:09;;;;;;;4.80;2.00;;;;;;;15.60;72.62;101385.19;4970659;28;20476;-82
2022/06/06 07:30:41;;;;;;;4.50;2.10;;;;;;;15.84;71.21;101376.06;4969206;28;20506;-82
2022/06/06 07:33:34;;;;;;;4.88;2.30;;;;;;;15.94;73.75;101387.53;4970365;28;20113;-82
2022/06/06 07:36:09;;;;;;;4.47;1.90;;;;;;;16.15;71.40;101382.16;4968466;28;20030;-82
2022/06/06 07:39:01;;;;;;;3.33;1.73;;;;;;;16.50;73.67;101384.34;4969470;28;20059;-82
2022/06/06 07:41:44;;;;;;;3.87;1.70;;;;;;;16.63;70.90;101387.53;4969021;28;20539;-82
2022/06/06 07:44:29;;;;;;;4.28;1.77;;;;;;;16.64;69.03;101391.88;4969821;28;20022;-82
2022/06/06 07:47:09;;;;;;;3.70;1.80;;;;;;;16.59;70.30;101388.81;4968721;28;20023;-83
2022/06/06 07:50:03;;;;;;;5.47;2.00;;;;;;;16.70;69.54;101391.34;4967712;28;20033;-83
2022/06/06 07:52:45;;;;;;;4.18;1.85;;;;;;;16.62;68.69;101388.53;4969885;28;20106;-82
2022/06/06 07:55:27;;;;;;;2.25;1.40;;;;;;;16.60;69.01;101391.31;4970177;28;20058;-82
2022/06/06 07:58:44;;;;;;;4.15;1.92;;;;;;;16.61;71.00;101392.16;4968739;28;20049;-82
2022/06/06 08:01:17;;;;;;;2.58;1.73;;;;;;;16.84;68.20;101390.94;4961356;28;20051;-82
2022/06/06 08:04:13;;;;;;;2.05;1.35;;;;;;;17.10;68.97;101382.38;4983422;28;20025;-83
2022/06/06 08:06:59;;;;;;;5.47;1.42;;;;;;;17.19;66.37;101386.81;4965429;28;20027;-83
2022/06/06 08:09:42;;;;;;;3.38;1.60;;;;;;;17.26;67.78;101390.63;4951699;28;20047;-83
2022/06/06 08:12:38;;;;;;;3.65;1.77;;;;;;;17.14;68.72;101383.75;4951170;28;20027;-83
2022/06/06 08:15:27;;;;;;;2.22;1.60;;;;;;;16.96;67.47;101382.81;4951858;28;20517;-83
2022/06/06 08:18:04;;;;;;;3.22;1.50;;;;;;;16.63;65.57;101384.88;4955271;28;20054;-83
2022/06/06 08:20:48;;;;;;;3.35;1.60;;;;;;;16.49;67.47;101380.00;4970367;28;20035;-83
2022/06/06 08:23:15;;;;;;;4.93;1.48;;;;;;;16.42;67.45;101392.16;4973022;28;20086;-83
2022/06/06 08:25:43;;;;;;;3.53;1.33;;;;;;;16.40;69.52;101378.97;4973709;28;20446;-83
2022/06/06 08:28:09;;;;;;;2.63;1.40;;;;;;;16.40;69.12;101378.16;4974882;28;20026;-83
2022/06/06 08:30:36;;;;;;;4.10;1.40;;;;;;;16.33;70.02;101380.50;4974202;28;20114;-83
2022/06/06 08:33:02;;;;;;;6.20;1.55;;;;;;;16.30;69.09;101371.00;4974512;28;20031;-83
2022/06/06 08:35:54;;;;;;;2.35;1.30;;;;;;;16.29;69.75;101372.00;4972426;28;21003;-83
2022/06/06 08:38:31;;;;;;;3.25;1.05;;;;;;;16.45;69.90;101370.63;4971896;28;20121;-83
2022/06/06 08:41:29;;;;;;;2.72;1.05;;;;;;;16.50;68.92;101368.38;4972853;28;20518;-83
2022/06/06 08:44:24;;;;;;;2.80;1.15;;;;;;;16.46;69.16;101367.00;4973379;28;20389;-83
2022/06/06 08:47:18;;;;;;;1.73;1.25;;;;;;;16.38;69.02;101365.00;4971782;28;20509;-83
2022/06/06 08:53:14;;;;;;;6.78;4.93;;;;;;;16.40;67.46;101356.91;4972104;28;20077;-84
2022/06/06 08:56:17;;;;;;;5.88;4.13;;;;;;;16.32;68.30;101364.72;4971278;28;20650;-83
2022/06/06 08:59:01;;;;;;;6.00;3.40;;;;;;;16.32;68.70;101359.41;4972360;28;20473;-84
2022/06/06 09:02:07;;;;;;;5.88;3.53;;;;;;;16.41;68.71;101370.06;4970938;28;20038;-83
2022/06/06 09:04:59;;;;;;;9.52;3.28;;;;;;;16.47;69.20;101358.03;4964825;28;20028;-83
2022/06/06 09:07:45;;;;;;;5.30;3.50;;;;;;;16.67;68.55;101358.91;4932935;29;20668;-84
2022/06/06 09:10:32;;;;;;;6.40;2.92;;;;;;;16.90;68.71;101357.66;4953617;29;20034;-84
2022/06/06 09:13:07;;;;;;;4.38;3.00;;;;;;;16.85;66.92;101360.72;4954484;29;20512;-83
2022/06/06 09:15:32;;;;;;;4.82;2.88;;;;;;;16.68;66.89;101361.41;4952374;29;20035;-84
2022/06/06 09:18:00;;;;;;;4.10;2.47;;;;;;;16.52;67.71;101359.31;4959974;28;20041;-83
2022/06/06 09:21:20;;;;;;;4.95;2.47;;;;;;;16.43;68.31;101364.63;4972569;28;20078;-84
2022/06/06 09:24:12;;;;;;;4.63;1.88;;;;;;;16.32;67.96;101362.06;4951378;29;20150;-84
2022/06/06 09:26:56;;;;;;;3.27;1.93;;;;;;;16.21;68.62;101358.56;4970814;28;20042;-84
2022/06/06 09:29:59;;;;;;;5.15;2.05;;;;;;;16.22;68.20;101349.63;4973179;28;20709;-84
2022/06/06 09:32:39;;;;;;;3.30;1.50;;;;;;;16.57;68.04;101354.41;4972345;28;20026;-84
2022/06/06 09:35:32;;;;;;;5.93;1.60;;;;;;;16.91;65.22;101341.56;4970525;28;20062;-83
2022/06/06 09:38:15;;;;;;;2.45;1.20;;;;;;;17.34;65.24;101337.53;4971973;28;20054;-84
2022/06/06 09:40:43;;;;;;;;;;;;;;;17.69;65.71;101336.03;4972216;28;20062;-84
2022/06/06 09:43:17;;;;;;;5.35;1.05;;;;;;;18.11;63.15;101339.84;4971938;28;20287;-85
2022/06/06 09:46:13;;;;;;;2.97;1.30;;;;;;;18.32;61.05;101330.72;4971854;28;20023;-84
2022/06/06 09:49:19;;;;;;;2.28;1.20;;;;;;;18.49;61.46;101321.91;4970260;28;20037;-84
2022/06/06 09:52:09;;;;;;;2.80;1.00;;;;;;;18.59;58.42;101322.66;4959016;28;20030;-84
2022/06/06 10:01:27;;;;;;;3.90;1.33;;;;;;;18.61;58.51;101318.00;4971419;28;20149;-83
2022/06/06 10:04:20;;;;;;;3.45;1.30;;;;;;;18.62;58.11;101310.88;4968230;28;20031;-83
2022/06/06 10:07:24;;;;;;;2.63;1.10;;;;;;;18.66;58.75;101307.72;4950756;28;20035;-84
2022/06/06 10:10:28;;;;;;;4.25;1.00;;;;;;;18.52;58.49;101313.59;4951819;28;20417;-83
2022/06/06 10:13:09;;;;;;;2.88;0.90;;;;;;;18.39;56.85;101311.28;4951011;29;20015;-83
2022/06/06 10:15:59;;;;;;;3.15;1.05;;;;;;;18.29;58.95;101313.22;4952007;28;20031;-83
2022/06/06 10:18:43;;;;;;;1.67;1.27;;;;;;;18.18;58.97;101310.78;4963054;28;20502;-83
2022/06/06 10:21:36;;;;;;;5.03;1.33;;;;;;;18.05;60.75;101316.47;4971529;28;20041;-84
2022/06/06 10:24:39;;;;;;;3.92;1.17;;;;;;;17.86;59.04;101316.59;4971674;28;20564;-84
2022/06/06 10:27:13;;;;;;;1.88;1.17;;;;;;;17.92;60.66;101309.81;4972769;28;20421;-83
2022/06/06 10:30:10;;;;;;;2.60;1.05;;;;;;;18.29;60.23;101312.38;4970563;28;20051;-83
2022/06/06 10:32:51;;;;;;;5.85;1.10;;;;;;;18.61;58.35;101304.66;4967279;28;20047;-83
2022/06/06 10:35:32;;;;;;;3.70;1.08;;;;;;;18.88;59.97;101297.56;4970784;28;20034;-84
2022/06/06 10:38:29;;;;;;;2.35;0.90;;;;;;;18.99;59.01;101299.97;4971269;28;20476;-83
2022/06/06 10:41:09;;;;;;;3.40;1.10;;;;;;;18.98;58.05;101316.97;4970876;28;20493;-83
2022/06/06 10:43:50;;;;;;;2.40;1.00;;;;;;;19.13;57.61;101314.56;4971662;28;20496;-83
2022/06/06 10:46:31;;;;;;;2.80;1.02;;;;;;;19.13;57.13;101306.56;4968703;28;20105;-84
2022/06/06 10:49:22;;;;;;;3.33;1.10;;;;;;;19.06;57.72;101309.84;4971094;28;20033;-83
2022/06/06 10:52:25;;;;;;;3.10;1.10;;;;;;;19.04;59.42;101303.00;4964273;28;20154;-83
2022/06/06 10:54:54;;;;;;;;;;;;;;;19.27;60.14;101303.31;4969539;28;20031;-83
2022/06/06 10:57:47;;;;;;;2.22;1.00;;;;;;;19.49;58.52;101299.25;4971126;28;19910;-83
2022/06/06 11:00:31;;;;;;;;;;;;;;;19.76;59.01;101300.88;4970759;28;20050;-83
2022/06/06 11:03:02;;;;;;;2.15;1.08;;;;;;;20.05;55.58;101295.97;4971000;28;20383;-83
2022/06/06 11:05:38;;;;;;;3.40;1.05;;;;;;;20.10;55.58;101298.13;4951243;28;20474;-83
2022/06/06 11:08:24;;;;;;;3.55;0.90;;;;;;;20.04;55.16;101288.94;4931973;29;20056;-83
2022/06/06 11:11:25;;;;;;;4.18;0.90;;;;;;;19.92;56.90;101293.75;4931806;29;20136;-80
2022/06/06 11:14:02;;;;;;;5.72;1.08;;;;;;;19.74;55.76;101293.03;4950168;28;20027;-81
2022/06/06 11:16:29;;;;;;;1.20;0.93;;;;;;;19.65;54.62;101273.50;4950198;28;20374;-81
2022/06/06 11:19:06;;;;;;;1.88;0.95;;;;;;;19.77;54.58;101294.53;4964499;28;20031;-81
2022/06/06 11:21:53;;;;;;;2.65;1.00;;;;;;;19.95;54.41;101274.72;4969671;28;20030;-80
2022/06/06 11:24:45;;;;;;;2.90;0.80;;;;;;;20.02;52.72;101273.09;4969250;28;20054;-81
2022/06/06 11:27:18;;;;;;;3.00;1.00;;;;;;;20.07;52.78;101274.44;4968791;28;20038;-81
2022/06/06 11:30:02;;;;;;;5.75;0.70;;;;;;;19.81;50.26;101269.19;4967952;28;20027;-82
2022/06/06 11:32:46;;;;;;;2.30;0.70;;;;;;;19.62;52.62;101265.81;4970679;28;20081;-81
2022/06/06 11:35:40;;;;;;;3.15;0.90;;;;;;;19.58;53.22;101276.94;4970900;28;20030;-81
2022/06/06 11:38:11;;;;;;;2.75;0.90;;;;;;;19.61;51.66;101277.50;4971611;28;20030;-80
2022/06/06 11:41:00;;;;;;;4.28;1.10;;;;;;;19.48;53.08;101276.22;4970837;28;20027;-81
2022/06/06 11:43:58;;;;;;;2.55;1.05;;;;;;;19.40;54.53;101277.03;4970732;28;20525;-81
2022/06/06 11:46:42;;;;;;;2.40;1.00;;;;;;;19.31;53.83;101278.81;4970119;28;20054;-80
2022/06/06 11:49:42;;;;;;;4.90;0.90;;;;;;;19.16;53.68;101277.72;4969591;28;20506;-81
2022/06/06 11:52:39;;;;;;;1.27;0.90;;;;;;;18.96;54.59;101284.28;4971365;28;20033;-81
2022/06/06 11:55:24;;;;;;;3.03;0.90;;;;;;;18.90;55.44;101287.59;4969976;28;20444;-81
2022/06/06 11:58:19;;;;;;;2.67;0.90;;;;;;;18.86;55.60;101278.22;4969356;28;20378;-81
2022/06/06 12:01:03;;;;;;;2.92;1.10;;;;;;;18.67;55.35;101272.09;4968870;28;20034;-80
2022/06/06 12:03:54;;;;;;;3.03;1.20;;;;;;;18.59;55.28;101276.50;4967941;28;20588;-80
2022/06/06 12:06:34;;;;;;;5.80;1.15;;;;;;;18.51;55.29;101279.09;4931411;29;20509;-80
2022/06/06 12:09:32;;;;;;;5.45;0.90;;;;;;;18.38;56.01;101274.97;4931603;29;20097;-81
2022/06/06 12:12:12;;;;;;;3.65;0.80;;;;;;;18.16;55.71;101286.94;4939779;29;20063;-80
2022/06/06 12:14:59;;;;;;;4.78;1.00;;;;;;;18.10;56.42;101281.41;4948606;29;20024;-80
2022/06/06 12:17:37;;;;;;;3.13;0.90;;;;;;;18.17;56.32;101277.13;4952603;28;20034;-80
2022/06/06 12:20:31;;;;;;;2.50;0.90;;;;;;;18.36;56.11;101286.78;4969814;28;20221;-80
2022/06/06 12:23:05;;;;;;;4.32;1.00;;;;;;;18.56;56.00;101282.13;4969279;28;20051;-81
2022/06/06 12:25:52;;;;;;;2.10;0.90;;;;;;;18.65;56.21;101268.75;4967251;28;20023;-80
2022/06/06 12:28:45;;;;;;;2.53;0.80;;;;;;;18.56;54.99;101271.47;4969659;28;20034;-80
2022/06/06 12:31:45;;;;;;;2.58;1.00;;;;;;;18.39;56.19;101270.50;4969122;28;20404;-80
2022/06/06 12:34:51;;;;;;;5.40;1.02;;;;;;;18.26;56.05;101280.72;4968236;28;20054;-80
2022/06/06 12:37:38;;;;;;;2.92;1.08;;;;;;;18.01;56.57;101283.16;4984502;28;20452;-80